Time;durP1;ratioP1;P1;durP2;ratioP2;P2;SDS_P1;SDS_P2;PMS_P1;PMS_P2;Temp;Humidity;BMP_temperature;BMP_pressure;BME280_temperature;BME280_humidity;BME280_pressure;Samples;Min_cycle;Max_cycle;Signal;HPM_P1;HPM_P2
2021/06/22 00:02:08;;;;;;;5.93;3.38;;;17.10;99.90;;;;;;5074878;28;20056;-74
2021/06/22 00:04:34;;;;;;;5.72;3.05;;;17.20;99.90;;;;;;5068031;28;20020;-75
2021/06/22 00:06:59;;;;;;;7.50;3.30;;;17.10;99.90;;;;;;5074426;28;20389;-74
2021/06/22 00:09:25;;;;;;;9.73;3.22;;;17.20;99.90;;;;;;5069136;28;20395;-75
2021/06/22 00:11:50;;;;;;;7.88;3.22;;;17.00;99.90;;;;;;5072408;28;20035;-74
2021/06/22 00:14:16;;;;;;;7.18;3.08;;;17.00;99.90;;;;;;5076052;28;20033;-73
2021/06/22 00:16:42;;;;;;;7.45;3.58;;;16.90;99.90;;;;;;5072533;28;20024;-74
2021/06/22 00:19:08;;;;;;;6.63;3.30;;;16.90;99.90;;;;;;5070854;28;20642;-74
2021/06/22 00:21:33;;;;;;;7.63;3.58;;;16.90;99.90;;;;;;5063942;28;20595;-74
2021/06/22 00:23:59;;;;;;;7.05;3.40;;;17.00;99.90;;;;;;5068291;28;20025;-74
2021/06/22 00:26:24;;;;;;;8.73;3.83;;;17.10;99.90;;;;;;5072635;28;20028;-73
2021/06/22 00:28:50;;;;;;;6.15;3.38;;;17.10;99.90;;;;;;5077694;28;20481;-74
2021/06/22 00:31:18;;;;;;;9.43;4.05;;;17.20;99.90;;;;;;5072778;28;20559;-73
2021/06/22 00:33:44;;;;;;;7.88;4.05;;;17.20;99.90;;;;;;5074694;28;20028;-74
2021/06/22 00:36:10;;;;;;;6.13;3.80;;;17.20;99.90;;;;;;5069820;28;20021;-74
2021/06/22 00:38:35;;;;;;;11.93;4.63;;;17.20;99.90;;;;;;5076899;28;20117;-74
2021/06/22 00:41:01;;;;;;;6.72;3.83;;;17.20;99.90;;;;;;5073151;28;20054;-74
2021/06/22 00:43:27;;;;;;;12.82;4.57;;;17.20;99.90;;;;;;5078416;28;20055;-72
2021/06/22 00:45:52;;;;;;;7.68;3.58;;;17.20;99.90;;;;;;5080428;28;20017;-74
2021/06/22 00:48:18;;;;;;;11.20;3.63;;;17.20;99.90;;;;;;5080357;28;20150;-73
2021/06/22 00:50:44;;;;;;;8.30;4.55;;;17.20;99.90;;;;;;5079125;28;20024;-74
2021/06/22 00:53:09;;;;;;;10.55;4.20;;;17.10;99.90;;;;;;5076988;28;20028;-74
2021/06/22 00:55:35;;;;;;;12.32;4.35;;;17.10;99.90;;;;;;5083100;28;20095;-73
2021/06/22 00:58:04;;;;;;;11.05;4.07;;;17.30;99.90;;;;;;5080107;28;20408;-74
2021/06/22 01:00:30;;;;;;;10.93;4.35;;;17.30;99.90;;;;;;5081666;28;20050;-73
2021/06/22 01:02:57;;;;;;;12.43;4.78;;;17.30;99.90;;;;;;5087112;28;20499;-73
2021/06/22 01:05:24;;;;;;;9.30;4.25;;;17.20;99.90;;;;;;5076159;28;20021;-74
2021/06/22 01:07:54;;;;;;;12.77;5.10;;;17.10;99.90;;;;;;5077033;28;20039;-74
2021/06/22 01:10:22;;;;;;;9.65;4.65;;;17.10;99.90;;;;;;5080057;28;20086;-73
2021/06/22 01:12:49;;;;;;;8.18;4.10;;;17.00;99.90;;;;;;5080707;28;20020;-74
2021/06/22 01:15:20;;;;;;;8.07;4.43;;;17.00;99.90;;;;;;5083530;28;20586;-75
2021/06/22 01:17:46;;;;;;;18.83;5.10;;;16.90;99.90;;;;;;5076444;28;20443;-73
2021/06/22 01:20:13;;;;;;;11.50;4.90;;;16.80;99.90;;;;;;5078411;28;20531;-74
2021/06/22 01:22:46;;;;;;;12.00;4.78;;;16.80;99.90;;;;;;5081198;28;20492;-73
2021/06/22 01:25:13;;;;;;;12.55;4.57;;;16.80;99.90;;;;;;5077069;28;20699;-74
2021/06/22 01:27:39;;;;;;;13.98;6.65;;;16.70;99.90;;;;;;5073492;28;20016;-74
2021/06/22 01:30:06;;;;;;;10.20;4.63;;;16.80;99.90;;;;;;5073259;28;20039;-73
2021/06/22 01:32:32;;;;;;;10.55;5.03;;;16.80;99.90;;;;;;5084568;28;20066;-75
2021/06/22 01:34:58;;;;;;;15.73;5.60;;;16.80;99.90;;;;;;5082096;28;20060;-74
2021/06/22 01:37:24;;;;;;;14.10;5.25;;;16.90;99.90;;;;;;5073935;28;20080;-74
2021/06/22 01:39:50;;;;;;;9.82;4.43;;;16.90;99.90;;;;;;5081070;28;20028;-74
2021/06/22 01:42:16;;;;;;;13.60;5.50;;;16.90;99.90;;;;;;5080082;28;20477;-74
2021/06/22 01:44:42;;;;;;;11.52;4.82;;;16.90;99.90;;;;;;5077708;28;20035;-74
2021/06/22 01:47:08;;;;;;;18.85;5.32;;;16.90;99.90;;;;;;5081535;28;20399;-73
2021/06/22 01:49:34;;;;;;;12.38;4.65;;;17.00;99.90;;;;;;5081794;28;20183;-74
2021/06/22 01:52:00;;;;;;;14.05;4.85;;;17.00;99.90;;;;;;5074804;28;20024;-74
2021/06/22 01:54:26;;;;;;;11.23;5.22;;;16.90;99.90;;;;;;5080360;28;20071;-74
2021/06/22 01:56:53;;;;;;;13.55;5.53;;;17.00;99.90;;;;;;5085403;28;20020;-74
2021/06/22 01:59:18;;;;;;;9.13;5.25;;;17.00;99.90;;;;;;5073062;28;20622;-73
2021/06/22 02:01:45;;;;;;;12.40;5.53;;;16.90;99.90;;;;;;5080856;28;20488;-74
2021/06/22 02:04:11;;;;;;;13.55;5.70;;;16.90;99.90;;;;;;5076279;28;20036;-75
2021/06/22 02:06:38;;;;;;;9.40;4.63;;;16.90;99.90;;;;;;5077821;28;20027;-74
2021/06/22 02:09:05;;;;;;;12.38;5.40;;;16.90;99.90;;;;;;5079279;28;20156;-74
2021/06/22 02:11:31;;;;;;;13.27;5.82;;;17.00;99.90;;;;;;5078517;28;20036;-74
2021/06/22 02:13:56;;;;;;;18.67;5.15;;;16.90;99.90;;;;;;5085993;28;20357;-74
2021/06/22 02:16:23;;;;;;;11.90;5.20;;;16.90;99.90;;;;;;5081468;28;20549;-73
2021/06/22 02:18:49;;;;;;;11.82;5.60;;;16.90;99.90;;;;;;5075792;28;20086;-72
2021/06/22 02:21:14;;;;;;;10.05;5.13;;;16.90;99.90;;;;;;5076753;28;20028;-71
2021/06/22 02:23:40;;;;;;;11.32;5.80;;;16.90;99.90;;;;;;5071400;28;20036;-73
2021/06/22 02:26:06;;;;;;;12.88;5.72;;;16.80;99.90;;;;;;5077249;28;20024;-74
2021/06/22 02:28:32;;;;;;;11.15;5.78;;;16.80;99.90;;;;;;5088144;28;20032;-73
2021/06/22 02:30:59;;;;;;;13.75;6.25;;;16.80;99.90;;;;;;5072749;28;20023;-74
2021/06/22 02:33:25;;;;;;;12.00;5.38;;;16.80;99.90;;;;;;5074064;28;20524;-74
2021/06/22 02:35:51;;;;;;;12.38;5.78;;;16.70;99.90;;;;;;5083248;28;20475;-72
2021/06/22 02:38:18;;;;;;;14.80;5.93;;;16.80;99.90;;;;;;5076210;28;20028;-73
2021/06/22 02:40:44;;;;;;;12.40;5.50;;;16.80;99.90;;;;;;5078412;28;20016;-72
2021/06/22 02:43:10;;;;;;;9.70;5.22;;;16.70;99.90;;;;;;5073437;28;20397;-74
2021/06/22 02:45:36;;;;;;;11.93;5.40;;;16.70;99.90;;;;;;5080802;28;20012;-71
2021/06/22 02:48:03;;;;;;;15.65;5.18;;;16.70;99.90;;;;;;5083433;28;20423;-74
2021/06/22 02:50:29;;;;;;;12.43;5.03;;;16.80;99.90;;;;;;5076613;28;20103;-74
2021/06/22 02:52:55;;;;;;;10.63;5.15;;;16.80;99.90;;;;;;5080590;28;20115;-73
2021/06/22 02:55:21;;;;;;;11.02;5.43;;;16.80;99.90;;;;;;5077155;28;20465;-74
2021/06/22 02:57:51;;;;;;;11.88;5.10;;;16.80;99.90;;;;;;5086601;28;20107;-72
2021/06/22 03:00:22;;;;;;;16.27;5.45;;;16.70;99.90;;;;;;5077364;28;20074;-73
2021/06/22 03:02:49;;;;;;;10.70;5.40;;;16.70;99.90;;;;;;5067361;28;20496;-74
2021/06/22 03:05:16;;;;;;;12.50;5.00;;;16.80;99.90;;;;;;5072578;28;20013;-74
2021/06/22 03:07:42;;;;;;;15.18;5.45;;;16.70;99.90;;;;;;5082131;28;20024;-74
2021/06/22 03:10:10;;;;;;;13.07;5.30;;;16.80;99.90;;;;;;5074543;28;20024;-74
2021/06/22 03:12:37;;;;;;;11.23;5.38;;;16.70;99.90;;;;;;5079163;28;20020;-74
2021/06/22 03:15:04;;;;;;;12.55;5.13;;;16.70;99.90;;;;;;5078534;28;20020;-74
2021/06/22 03:17:30;;;;;;;13.73;5.13;;;16.70;99.90;;;;;;5081582;28;20039;-74
2021/06/22 03:19:55;;;;;;;10.30;5.80;;;16.70;99.90;;;;;;5075016;28;20392;-74
2021/06/22 03:22:21;;;;;;;12.70;5.63;;;16.70;99.90;;;;;;5081698;28;20042;-74
2021/06/22 03:24:47;;;;;;;13.32;5.53;;;16.60;99.90;;;;;;5071981;28;20035;-73
2021/06/22 03:27:12;;;;;;;11.43;5.70;;;16.70;99.90;;;;;;5066719;28;20477;-74
2021/06/22 03:29:38;;;;;;;10.57;5.72;;;16.60;99.90;;;;;;5082430;28;20020;-74
2021/06/22 03:32:04;;;;;;;11.60;5.55;;;16.50;99.90;;;;;;5076248;28;20056;-74
2021/06/22 03:34:30;;;;;;;12.90;5.85;;;16.40;99.90;;;;;;5079344;28;20384;-74
2021/06/22 03:36:56;;;;;;;14.07;5.68;;;16.40;99.90;;;;;;5076773;28;20028;-74
2021/06/22 03:39:22;;;;;;;13.02;6.57;;;16.30;99.90;;;;;;5079785;28;20021;-73
2021/06/22 03:41:47;;;;;;;12.63;5.82;;;16.30;99.90;;;;;;5083372;28;20039;-74
2021/06/22 03:44:13;;;;;;;11.50;5.78;;;16.30;99.90;;;;;;5071881;28;20039;-74
2021/06/22 03:46:42;;;;;;;16.83;6.57;;;16.30;99.90;;;;;;5080633;28;20053;-74
2021/06/22 03:49:08;;;;;;;16.67;6.85;;;16.40;99.90;;;;;;5075491;28;20729;-74
2021/06/22 03:51:34;;;;;;;11.88;6.03;;;16.40;99.90;;;;;;5077111;28;20055;-74
2021/06/22 03:53:59;;;;;;;14.32;6.88;;;16.40;99.90;;;;;;5075694;28;20085;-73
2021/06/22 03:56:26;;;;;;;17.48;6.88;;;16.40;99.90;;;;;;5074054;28;20063;-74
2021/06/22 03:58:52;;;;;;;12.32;7.50;;;16.20;99.90;;;;;;5081820;28;20028;-73
2021/06/22 04:01:18;;;;;;;14.27;7.55;;;16.10;99.90;;;;;;5081805;28;20031;-74
2021/06/22 04:03:43;;;;;;;17.33;7.85;;;16.20;99.90;;;;;;5066027;28;20043;-74
2021/06/22 04:06:09;;;;;;;17.38;7.70;;;16.20;99.90;;;;;;5075451;28;20055;-74
2021/06/22 04:08:36;;;;;;;18.45;8.63;;;16.10;99.90;;;;;;5080922;28;20055;-74
2021/06/22 04:11:03;;;;;;;16.40;8.88;;;16.10;99.90;;;;;;5076899;28;20016;-74
2021/06/22 04:13:29;;;;;;;16.13;8.68;;;16.20;99.90;;;;;;5082242;28;20126;-73
2021/06/22 04:15:55;;;;;;;22.80;9.55;;;16.20;99.90;;;;;;5081737;28;20016;-72
2021/06/22 04:18:21;;;;;;;15.07;9.32;;;16.40;99.90;;;;;;5076818;28;20032;-73
2021/06/22 04:20:47;;;;;;;15.48;8.27;;;16.30;99.90;;;;;;5081607;28;20479;-74
2021/06/22 04:23:13;;;;;;;15.63;8.15;;;16.40;99.90;;;;;;5082138;28;20285;-70
2021/06/22 04:25:39;;;;;;;18.20;8.25;;;16.40;99.90;;;;;;5073597;28;20353;-73
2021/06/22 04:28:05;;;;;;;15.52;8.60;;;16.40;99.90;;;;;;5079124;28;20028;-73
2021/06/22 04:30:33;;;;;;;16.55;9.10;;;16.30;99.90;;;;;;5080036;28;20460;-73
2021/06/22 04:32:59;;;;;;;17.58;9.55;;;16.40;99.90;;;;;;5080234;28;20104;-73
2021/06/22 04:35:27;;;;;;;15.68;9.23;;;16.30;99.90;;;;;;5078949;28;20028;-73
2021/06/22 04:37:53;;;;;;;16.33;8.65;;;16.40;99.90;;;;;;5086873;28;20020;-72
2021/06/22 04:40:19;;;;;;;14.45;8.27;;;16.40;99.90;;;;;;5076576;28;20028;-73
2021/06/22 04:42:44;;;;;;;18.42;9.25;;;16.40;99.90;;;;;;5080424;28;20403;-72
2021/06/22 04:45:11;;;;;;;17.65;7.90;;;16.40;99.90;;;;;;5070225;28;20031;-73
2021/06/22 04:47:37;;;;;;;16.98;8.27;;;16.40;99.90;;;;;;5084916;28;20021;-73
2021/06/22 04:50:04;;;;;;;18.58;8.43;;;16.40;99.90;;;;;;5087590;28;20050;-72
2021/06/22 04:52:29;;;;;;;21.70;8.38;;;16.40;99.90;;;;;;5079189;28;20085;-72
2021/06/22 04:54:55;;;;;;;21.52;8.35;;;16.50;99.90;;;;;;5080784;28;20040;-72
2021/06/22 04:57:21;;;;;;;16.23;8.25;;;16.40;99.90;;;;;;5083414;28;20103;-71
2021/06/22 04:59:47;;;;;;;13.70;8.95;;;16.40;99.90;;;;;;5079159;28;20103;-71
2021/06/22 05:02:12;;;;;;;17.42;9.32;;;16.40;99.90;;;;;;5077373;28;20105;-70
2021/06/22 05:04:38;;;;;;;23.80;9.15;;;16.40;99.90;;;;;;5083201;28;20032;-72
2021/06/22 05:07:04;;;;;;;15.05;8.52;;;16.50;99.90;;;;;;5076861;28;20035;-72
2021/06/22 05:09:30;;;;;;;18.52;8.35;;;16.50;99.90;;;;;;5082140;28;20199;-72
2021/06/22 05:11:55;;;;;;;17.13;9.23;;;16.50;99.90;;;;;;5081572;28;20140;-72
2021/06/22 05:14:21;;;;;;;21.80;9.18;;;16.50;99.90;;;;;;5086937;28;20052;-72
2021/06/22 05:16:49;;;;;;;17.90;9.38;;;16.40;99.90;;;;;;5083023;28;20024;-72
2021/06/22 05:19:15;;;;;;;17.27;8.25;;;16.40;99.90;;;;;;5081522;28;20021;-73
2021/06/22 05:21:40;;;;;;;19.50;9.65;;;16.30;99.90;;;;;;5084530;28;20447;-73
2021/06/22 05:24:06;;;;;;;17.27;9.02;;;16.30;99.90;;;;;;5081561;28;20025;-73
2021/06/22 05:26:32;;;;;;;15.15;9.50;;;16.20;99.90;;;;;;5077838;28;20028;-73
2021/06/22 05:28:58;;;;;;;23.30;9.52;;;16.30;99.90;;;;;;5078672;28;20024;-72
2021/06/22 05:31:23;;;;;;;24.77;9.50;;;16.30;99.90;;;;;;5083406;28;20025;-72
2021/06/22 05:33:49;;;;;;;15.38;8.38;;;16.30;99.90;;;;;;5072251;28;20101;-73
2021/06/22 05:36:14;;;;;;;16.75;8.30;;;16.40;99.90;;;;;;5072049;28;20025;-74
2021/06/22 05:38:40;;;;;;;20.90;8.18;;;16.40;99.90;;;;;;5071517;28;20035;-72
2021/06/22 05:41:06;;;;;;;17.80;10.13;;;16.50;99.90;;;;;;5069997;28;20062;-75
2021/06/22 05:43:33;;;;;;;14.63;8.90;;;16.40;99.90;;;;;;5081790;28;20090;-74
2021/06/22 05:45:58;;;;;;;18.50;9.27;;;16.40;99.90;;;;;;5078730;28;20103;-74
2021/06/22 05:48:24;;;;;;;18.25;8.82;;;16.50;99.90;;;;;;5081234;28;20107;-74
2021/06/22 05:50:49;;;;;;;21.00;9.35;;;16.50;99.90;;;;;;5079650;28;20020;-74
2021/06/22 05:53:15;;;;;;;16.88;9.73;;;16.50;99.90;;;;;;5084977;28;20119;-74
2021/06/22 05:55:41;;;;;;;16.63;9.23;;;16.60;99.90;;;;;;5080980;28;20375;-74
2021/06/22 05:58:06;;;;;;;22.15;9.38;;;16.60;99.90;;;;;;5085337;28;20539;-74
2021/06/22 06:00:33;;;;;;;17.25;9.00;;;16.60;99.90;;;;;;5075167;28;20039;-73
2021/06/22 06:02:58;;;;;;;15.00;8.98;;;16.60;99.90;;;;;;5077926;28;20218;-74
2021/06/22 06:05:24;;;;;;;16.33;9.00;;;16.60;99.90;;;;;;5074447;28;20574;-73
2021/06/22 06:07:50;;;;;;;20.35;10.30;;;16.60;99.90;;;;;;5062974;28;20032;-73
2021/06/22 06:10:17;;;;;;;13.98;9.45;;;16.60;99.90;;;;;;5074145;28;20016;-73
2021/06/22 06:12:43;;;;;;;18.58;10.05;;;16.70;99.90;;;;;;5075453;28;20024;-76
2021/06/22 06:15:10;;;;;;;14.50;10.07;;;16.80;99.90;;;;;;5069580;28;20028;-74
2021/06/22 06:17:36;;;;;;;17.83;9.38;;;16.70;99.90;;;;;;5069444;28;20020;-79
2021/06/22 06:20:05;;;;;;;18.02;9.57;;;16.60;99.90;;;;;;5066022;28;20568;-77
2021/06/22 06:22:30;;;;;;;18.35;9.82;;;16.50;99.90;;;;;;5069592;28;20107;-75
2021/06/22 06:24:59;;;;;;;16.17;9.43;;;16.60;99.90;;;;;;5067168;28;20111;-72
2021/06/22 06:27:37;;;;;;;18.45;9.43;;;16.60;99.90;;;;;;5063717;28;20108;-77
2021/06/22 06:30:07;;;;;;;19.27;10.45;;;16.70;99.90;;;;;;5065141;28;20020;-76
2021/06/22 06:32:33;;;;;;;15.02;9.45;;;16.70;99.90;;;;;;5071103;28;21245;-78
2021/06/22 06:34:59;;;;;;;18.35;9.68;;;16.70;99.90;;;;;;5070318;28;20032;-79
2021/06/22 06:37:24;;;;;;;20.33;9.95;;;16.60;99.90;;;;;;5075327;28;20031;-75
2021/06/22 06:39:50;;;;;;;16.13;9.05;;;16.70;99.90;;;;;;5066648;28;20484;-74
2021/06/22 06:42:15;;;;;;;17.63;9.77;;;16.70;99.90;;;;;;5071647;28;20033;-71
2021/06/22 06:44:41;;;;;;;13.98;7.28;;;16.70;99.90;;;;;;5070449;28;20027;-75
2021/06/22 06:47:07;;;;;;;17.55;8.15;;;16.70;99.90;;;;;;5080456;28;20047;-76
2021/06/22 06:49:35;;;;;;;16.48;8.23;;;16.70;99.90;;;;;;5075412;28;20168;-78
2021/06/22 06:52:04;;;;;;;12.75;8.18;;;16.80;99.90;;;;;;5078689;28;20031;-78
2021/06/22 06:54:30;;;;;;;23.25;8.63;;;16.70;99.90;;;;;;5076782;28;20621;-74
2021/06/22 06:56:56;;;;;;;15.27;8.27;;;16.90;99.90;;;;;;5066895;28;20096;-69
2021/06/22 06:59:22;;;;;;;13.40;8.73;;;16.90;99.90;;;;;;5071958;28;20023;-71
2021/06/22 07:01:48;;;;;;;17.60;9.80;;;16.90;99.90;;;;;;5078990;28;20044;-69
2021/06/22 07:04:13;;;;;;;17.05;8.57;;;16.90;99.90;;;;;;5078265;28;20024;-70
2021/06/22 07:06:39;;;;;;;13.23;8.32;;;16.90;99.90;;;;;;5074574;28;20044;-70
2021/06/22 07:09:05;;;;;;;17.77;10.02;;;16.80;99.90;;;;;;5075275;28;20020;-69
2021/06/22 07:11:32;;;;;;;18.77;9.02;;;16.70;99.90;;;;;;5070192;28;20104;-71
2021/06/22 07:13:57;;;;;;;17.02;9.68;;;16.70;99.90;;;;;;5073106;28;20179;-70
2021/06/22 07:16:24;;;;;;;15.10;9.32;;;16.70;99.90;;;;;;5071303;28;20517;-70
2021/06/22 07:18:50;;;;;;;13.85;8.88;;;16.70;99.90;;;;;;5069479;28;20033;-70
2021/06/22 07:21:16;;;;;;;16.88;9.02;;;16.70;99.90;;;;;;5070858;28;20043;-69
2021/06/22 07:23:42;;;;;;;15.38;7.70;;;16.60;99.90;;;;;;5065093;28;20489;-70
2021/06/22 07:26:08;;;;;;;13.68;8.05;;;16.70;99.90;;;;;;5073298;28;20027;-70
2021/06/22 07:28:34;;;;;;;13.60;7.72;;;16.70;99.90;;;;;;5083798;28;20038;-69
2021/06/22 07:31:00;;;;;;;13.32;7.60;;;16.80;99.90;;;;;;5077577;28;20430;-70
2021/06/22 07:33:25;;;;;;;18.73;9.27;;;16.70;99.90;;;;;;5073418;28;20035;-71
2021/06/22 07:35:51;;;;;;;12.50;8.13;;;16.70;99.90;;;;;;5071875;28;20032;-70
2021/06/22 07:38:17;;;;;;;20.88;9.30;;;16.80;99.90;;;;;;5064683;28;20033;-72
2021/06/22 07:40:42;;;;;;;16.98;10.00;;;16.80;99.90;;;;;;5045825;28;20058;-70
2021/06/22 07:43:08;;;;;;;19.45;8.98;;;16.80;99.90;;;;;;5068101;28;20097;-70
2021/06/22 07:45:34;;;;;;;18.27;9.52;;;16.90;99.90;;;;;;5073096;28;20031;-70
2021/06/22 07:47:59;;;;;;;15.95;8.45;;;17.00;99.90;;;;;;5068256;28;20362;-70
2021/06/22 07:50:25;;;;;;;12.55;8.43;;;17.00;99.90;;;;;;5075570;28;20028;-70
2021/06/22 07:52:51;;;;;;;17.27;8.68;;;17.00;99.90;;;;;;5079538;28;20032;-71
2021/06/22 07:55:16;;;;;;;16.25;8.43;;;16.90;99.90;;;;;;5079359;28;20154;-70
2021/06/22 07:57:47;;;;;;;17.15;9.43;;;16.80;99.90;;;;;;5089282;28;20364;-70
2021/06/22 08:00:37;;;;;;;14.60;9.35;;;17.00;99.90;;;;;;5069865;28;20037;-71
2021/06/22 08:03:04;;;;;;;19.45;8.90;;;17.10;99.90;;;;;;5062448;28;20059;-72
2021/06/22 08:05:29;;;;;;;14.88;9.13;;;17.10;99.90;;;;;;5066208;28;20031;-75
2021/06/22 08:07:55;;;;;;;18.92;8.73;;;17.00;99.90;;;;;;5067869;28;20024;-70
2021/06/22 08:10:20;;;;;;;15.43;8.05;;;17.00;99.90;;;;;;5067777;28;20020;-72
2021/06/22 08:12:46;;;;;;;17.30;9.38;;;17.00;99.90;;;;;;5064125;28;20032;-71
2021/06/22 08:15:12;;;;;;;14.55;9.07;;;17.10;99.90;;;;;;5066897;28;20019;-72
2021/06/22 08:17:38;;;;;;;19.80;9.18;;;17.20;99.90;;;;;;5070895;28;20025;-72
2021/06/22 08:20:05;;;;;;;17.42;9.20;;;17.10;99.90;;;;;;5069803;28;20605;-71
2021/06/22 08:22:30;;;;;;;17.85;8.93;;;17.10;99.90;;;;;;5073450;28;20101;-71
2021/06/22 08:24:56;;;;;;;14.57;9.00;;;17.00;99.90;;;;;;5069063;28;20032;-71
2021/06/22 08:27:22;;;;;;;15.52;8.40;;;17.10;99.90;;;;;;5068740;28;20024;-71
2021/06/22 08:29:47;;;;;;;17.40;8.13;;;17.00;99.90;;;;;;5067332;28;20019;-71
2021/06/22 08:32:13;;;;;;;14.18;8.32;;;17.00;99.90;;;;;;5071659;28;20025;-71
2021/06/22 08:34:38;;;;;;;15.43;8.35;;;17.10;99.90;;;;;;5068552;28;20056;-71
2021/06/22 08:37:04;;;;;;;11.93;8.23;;;17.10;99.90;;;;;;5073229;28;20545;-71
2021/06/22 08:39:29;;;;;;;16.33;8.70;;;17.20;99.90;;;;;;5069985;28;20565;-70
2021/06/22 08:41:56;;;;;;;13.35;8.23;;;17.10;99.90;;;;;;5078018;28;20120;-70
2021/06/22 08:44:24;;;;;;;19.95;9.25;;;17.20;99.90;;;;;;5070979;28;20021;-71
2021/06/22 08:46:50;;;;;;;17.52;9.35;;;17.20;99.90;;;;;;5071150;28;20033;-71
2021/06/22 08:49:16;;;;;;;14.35;9.07;;;17.30;99.90;;;;;;5074139;28;20028;-71
2021/06/22 08:51:42;;;;;;;17.83;9.32;;;17.30;99.90;;;;;;5071710;28;20032;-72
2021/06/22 08:54:09;;;;;;;14.52;9.50;;;17.40;99.90;;;;;;5094128;28;20067;-72
2021/06/22 08:56:35;;;;;;;13.63;8.98;;;17.40;99.90;;;;;;5077747;28;20081;-71
2021/06/22 08:59:02;;;;;;;16.60;9.57;;;17.40;99.90;;;;;;5072899;28;20074;-72
2021/06/22 09:01:28;;;;;;;21.17;10.60;;;17.40;99.90;;;;;;5078891;28;20032;-72
2021/06/22 09:03:53;;;;;;;22.23;10.38;;;17.50;99.90;;;;;;5073290;28;20047;-72
2021/06/22 09:06:23;;;;;;;15.50;8.98;;;17.40;99.90;;;;;;5073976;28;20031;-71
2021/06/22 09:08:54;;;;;;;15.68;8.18;;;17.30;99.90;;;;;;5069869;28;20020;-72
2021/06/22 09:11:20;;;;;;;14.40;8.32;;;17.30;99.90;;;;;;5076742;28;20137;-70
2021/06/22 09:13:59;;;;;;;16.50;8.02;;;17.40;99.90;;;;;;5072890;28;20489;-70
2021/06/22 09:16:25;;;;;;;14.40;9.55;;;17.40;99.90;;;;;;5068214;28;20531;-69
2021/06/22 09:18:50;;;;;;;13.95;7.85;;;17.40;99.90;;;;;;5069253;28;20566;-73
2021/06/22 09:21:24;;;;;;;13.75;8.93;;;17.50;99.90;;;;;;5077992;28;20035;-71
2021/06/22 09:23:52;;;;;;;17.08;8.63;;;17.50;99.90;;;;;;5074564;28;20029;-71
2021/06/22 09:26:30;;;;;;;16.02;8.48;;;17.60;99.90;;;;;;5071622;28;20051;-72
2021/06/22 09:29:14;;;;;;;14.65;8.48;;;17.50;99.90;;;;;;5075935;28;20028;-73
2021/06/22 09:31:50;;;;;;;12.77;8.15;;;17.60;99.90;;;;;;5078117;28;20036;-72
2021/06/22 09:34:18;;;;;;;14.45;8.93;;;17.60;99.90;;;;;;5076286;28;20028;-69
2021/06/22 09:36:52;;;;;;;12.45;7.65;;;17.50;99.90;;;;;;5080694;28;20119;-71
2021/06/22 09:39:21;;;;;;;14.98;7.97;;;17.50;99.90;;;;;;5075789;28;20377;-71
2021/06/22 09:41:47;;;;;;;20.17;9.18;;;17.60;99.90;;;;;;5079889;28;21258;-72
2021/06/22 09:44:21;;;;;;;18.27;8.60;;;17.60;99.90;;;;;;5080053;28;20027;-71
2021/06/22 09:46:48;;;;;;;14.30;8.82;;;17.60;99.90;;;;;;5039521;28;20690;-70
2021/06/22 09:49:20;;;;;;;18.83;9.50;;;17.50;99.90;;;;;;5072906;28;20385;-73
2021/06/22 09:51:56;;;;;;;11.95;8.63;;;17.50;99.90;;;;;;5075042;28;20088;-72
2021/06/22 09:54:23;;;;;;;17.40;9.45;;;17.40;99.90;;;;;;5086322;28;20385;-71
2021/06/22 09:56:51;;;;;;;16.25;10.05;;;17.50;99.90;;;;;;5070014;28;20036;-72
2021/06/22 09:59:17;;;;;;;13.35;8.95;;;17.60;99.90;;;;;;5069662;28;20109;-73
2021/06/22 10:01:43;;;;;;;13.80;8.77;;;17.80;99.90;;;;;;5078013;28;20447;-72
2021/06/22 10:04:23;;;;;;;15.23;9.85;;;17.80;99.90;;;;;;5075202;28;20032;-71
2021/06/22 10:06:52;;;;;;;11.63;9.57;;;17.80;99.90;;;;;;5072748;28;20284;-72
2021/06/22 10:09:36;;;;;;;13.93;10.60;;;17.80;99.90;;;;;;5080477;28;20021;-71
2021/06/22 10:12:04;;;;;;;16.20;10.95;;;17.80;99.90;;;;;;5072989;28;20082;-71
2021/06/22 10:14:38;;;;;;;15.23;11.10;;;17.80;99.90;;;;;;5078245;28;20020;-71
2021/06/22 10:17:09;;;;;;;16.70;12.35;;;17.70;99.90;;;;;;5077006;28;20024;-71
2021/06/22 10:19:37;;;;;;;19.65;12.27;;;17.80;99.90;;;;;;5084414;28;20027;-71
2021/06/22 10:22:06;;;;;;;18.38;12.23;;;17.80;99.90;;;;;;5071238;28;20028;-71
2021/06/22 10:24:33;;;;;;;16.10;12.43;;;18.00;99.90;;;;;;5082394;28;20054;-72
2021/06/22 10:26:59;;;;;;;23.58;14.23;;;18.00;99.90;;;;;;5076685;28;20051;-72
2021/06/22 10:29:27;;;;;;;18.95;12.88;;;18.10;99.90;;;;;;5080661;28;20020;-71
2021/06/22 10:31:55;;;;;;;20.25;14.23;;;18.20;99.90;;;;;;5080293;28;20031;-71
2021/06/22 10:34:21;;;;;;;18.45;13.57;;;18.20;99.90;;;;;;5072424;28;20021;-71
2021/06/22 10:37:08;;;;;;;18.67;13.68;;;18.20;99.90;;;;;;5067680;28;20036;-70
2021/06/22 10:39:40;;;;;;;19.02;13.65;;;18.30;99.90;;;;;;5072199;28;20028;-71
2021/06/22 10:42:12;;;;;;;19.70;13.35;;;18.30;99.90;;;;;;5075614;28;20512;-70
2021/06/22 10:44:52;;;;;;;16.65;13.13;;;18.40;99.90;;;;;;5070820;28;20028;-71
2021/06/22 10:47:17;;;;;;;15.50;12.18;;;18.40;99.90;;;;;;5070288;28;20384;-71
2021/06/22 10:50:24;;;;;;;17.13;13.85;;;18.40;99.90;;;;;;5071956;28;20024;-71
2021/06/22 10:52:57;;;;;;;17.80;13.40;;;18.40;99.90;;;;;;5044081;28;20036;-71
2021/06/22 10:55:33;;;;;;;20.70;12.40;;;18.40;99.90;;;;;;5074203;28;20031;-72
2021/06/22 11:00:42;;;;;;;24.48;13.52;;;18.30;99.90;;;;;;5072421;28;20029;-71
2021/06/22 11:03:08;;;;;;;18.35;12.48;;;18.30;99.90;;;;;;5066509;28;20032;-71
2021/06/22 11:05:39;;;;;;;18.73;12.85;;;18.30;99.90;;;;;;5073684;28;20025;-71
2021/06/22 11:08:14;;;;;;;15.48;12.52;;;18.30;99.90;;;;;;5076159;28;20040;-72
2021/06/22 11:10:42;;;;;;;14.82;12.00;;;18.30;99.90;;;;;;5079100;28;20239;-71
2021/06/22 11:13:28;;;;;;;22.58;13.20;;;18.30;99.90;;;;;;5073814;28;20020;-71
2021/06/22 11:15:55;;;;;;;21.17;14.13;;;18.40;99.90;;;;;;5081044;28;20126;-71
2021/06/22 11:18:21;;;;;;;19.63;14.43;;;18.30;99.90;;;;;;5081148;28;20542;-71
2021/06/22 11:21:04;;;;;;;18.13;13.13;;;18.30;99.90;;;;;;5077656;28;20146;-72
2021/06/22 11:23:31;;;;;;;17.45;13.52;;;18.30;99.90;;;;;;5073954;28;20043;-71
2021/06/22 11:26:02;;;;;;;16.27;12.35;;;18.30;99.90;;;;;;5079208;28;20059;-72
2021/06/22 11:28:28;;;;;;;17.48;13.15;;;18.30;99.90;;;;;;5070342;28;20035;-72
2021/06/22 11:30:54;;;;;;;17.70;12.73;;;18.30;99.90;;;;;;5078474;28;20103;-72
2021/06/22 11:33:35;;;;;;;15.13;13.63;;;18.30;99.90;;;;;;5075773;28;20135;-72
2021/06/22 11:36:20;;;;;;;19.85;13.60;;;18.40;99.90;;;;;;5076578;28;20384;-75
2021/06/22 11:39:08;;;;;;;16.65;13.27;;;18.30;99.90;;;;;;5080457;28;20032;-75
2021/06/22 11:41:34;;;;;;;15.80;13.65;;;18.50;99.90;;;;;;5077418;28;20032;-73
2021/06/22 11:44:09;;;;;;;20.05;14.15;;;18.50;99.90;;;;;;5078745;28;20028;-73
2021/06/22 11:46:37;;;;;;;17.08;14.82;;;18.60;99.90;;;;;;5068286;28;20027;-74
2021/06/22 11:49:03;;;;;;;21.33;14.25;;;18.70;99.90;;;;;;5077949;28;20070;-72
2021/06/22 11:52:05;;;;;;;18.88;14.20;;;18.80;99.90;;;;;;5077452;28;20469;-72
2021/06/22 11:54:46;;;;;;;23.63;15.30;;;18.70;99.90;;;;;;5082280;28;20442;-74
2021/06/22 11:57:20;;;;;;;17.52;15.38;;;18.70;99.90;;;;;;5081855;28;20060;-71
2021/06/22 11:59:46;;;;;;;23.60;16.95;;;18.50;99.90;;;;;;5077794;28;20111;-72
2021/06/22 12:02:15;;;;;;;18.83;16.83;;;18.50;99.90;;;;;;5088733;28;20076;-73
2021/06/22 12:04:41;;;;;;;23.25;17.38;;;18.40;99.90;;;;;;5081139;28;20029;-73
2021/06/22 12:07:08;;;;;;;21.85;17.17;;;18.50;99.90;;;;;;5074910;28;20486;-73
2021/06/22 12:09:36;;;;;;;21.13;18.55;;;18.40;99.90;;;;;;5083498;28;20020;-72
2021/06/22 12:12:02;;;;;;;28.00;18.42;;;18.40;99.90;;;;;;5077773;28;20032;-73
2021/06/22 12:14:28;;;;;;;24.02;17.35;;;18.50;99.90;;;;;;5077868;28;20016;-73
2021/06/22 12:16:54;;;;;;;22.33;18.00;;;18.60;99.90;;;;;;5070773;28;20104;-73
2021/06/22 12:19:21;;;;;;;22.10;19.75;;;18.60;99.90;;;;;;5075672;28;20028;-73
2021/06/22 12:21:49;;;;;;;22.52;18.67;;;18.70;99.90;;;;;;5080642;28;20105;-73
2021/06/22 12:24:15;;;;;;;25.83;19.48;;;18.70;99.90;;;;;;5086761;28;20051;-72
2021/06/22 12:26:43;;;;;;;26.20;21.52;;;18.70;99.90;;;;;;5076391;28;21402;-73
2021/06/22 12:29:16;;;;;;;28.27;20.98;;;18.70;99.90;;;;;;5082420;28;20081;-72
2021/06/22 12:32:08;;;;;;;25.92;21.15;;;18.70;99.90;;;;;;5078593;28;20491;-73
2021/06/22 12:34:38;;;;;;;26.10;22.55;;;18.70;99.90;;;;;;5079039;28;20036;-72
2021/06/22 12:37:16;;;;;;;27.92;24.88;;;18.60;99.90;;;;;;5086069;28;20089;-72
2021/06/22 12:39:42;;;;;;;30.35;24.45;;;18.60;99.90;;;;;;5079946;28;20087;-81
2021/06/22 12:42:11;;;;;;;28.50;24.17;;;18.60;99.90;;;;;;5082238;28;20059;-80